sensor_id;sensor_type;location;lat;lon;timestamp;P1;durP1;ratioP1;P2;durP2;ratioP2
1214;SDS011;597;51.998;5.880;2022-11-20T00:00:22;21.27;;;13.00;;
1214;SDS011;597;51.998;5.880;2022-11-20T00:02:47;23.00;;;13.40;;
1214;SDS011;597;51.998;5.880;2022-11-20T00:05:12;23.97;;;14.80;;
1214;SDS011;597;51.998;5.880;2022-11-20T00:07:38;27.90;;;14.40;;
1214;SDS011;597;51.998;5.880;2022-11-20T00:10:03;23.37;;;14.20;;
1214;SDS011;597;51.998;5.880;2022-11-20T00:12:28;28.03;;;18.23;;
1214;SDS011;597;51.998;5.880;2022-11-20T00:14:53;24.13;;;15.60;;
1214;SDS011;597;51.998;5.880;2022-11-20T00:17:19;26.47;;;15.30;;
1214;SDS011;597;51.998;5.880;2022-11-20T00:19:44;23.07;;;15.03;;
1214;SDS011;597;51.998;5.880;2022-11-20T00:22:09;28.90;;;15.40;;
1214;SDS011;597;51.998;5.880;2022-11-20T00:24:34;27.33;;;14.27;;
1214;SDS011;597;51.998;5.880;2022-11-20T00:26:59;24.73;;;14.00;;
1214;SDS011;597;51.998;5.880;2022-11-20T00:29:25;25.33;;;14.07;;
1214;SDS011;597;51.998;5.880;2022-11-20T00:31:50;27.40;;;14.63;;
1214;SDS011;597;51.998;5.880;2022-11-20T00:34:15;25.13;;;14.20;;
1214;SDS011;597;51.998;5.880;2022-11-20T00:36:40;20.30;;;13.43;;
1214;SDS011;597;51.998;5.880;2022-11-20T00:39:05;20.53;;;12.93;;
1214;SDS011;597;51.998;5.880;2022-11-20T00:41:31;22.33;;;14.13;;
1214;SDS011;597;51.998;5.880;2022-11-20T00:43:56;19.83;;;12.60;;
1214;SDS011;597;51.998;5.880;2022-11-20T00:46:22;23.97;;;13.30;;
1214;SDS011;597;51.998;5.880;2022-11-20T00:48:47;26.90;;;14.18;;
1214;SDS011;597;51.998;5.880;2022-11-20T00:51:14;22.37;;;13.63;;
1214;SDS011;597;51.998;5.880;2022-11-20T00:53:39;20.65;;;12.52;;
1214;SDS011;597;51.998;5.880;2022-11-20T00:56:06;23.23;;;14.20;;
1214;SDS011;597;51.998;5.880;2022-11-20T00:58:32;24.15;;;13.52;;
1214;SDS011;597;51.998;5.880;2022-11-20T01:01:02;25.02;;;13.45;;
1214;SDS011;597;51.998;5.880;2022-11-20T01:03:27;27.30;;;15.30;;
1214;SDS011;597;51.998;5.880;2022-11-20T01:05:52;20.20;;;14.00;;
1214;SDS011;597;51.998;5.880;2022-11-20T01:08:18;39.50;;;14.73;;
1214;SDS011;597;51.998;5.880;2022-11-20T01:10:43;21.07;;;13.57;;
1214;SDS011;597;51.998;5.880;2022-11-20T01:13:08;26.47;;;13.77;;
1214;SDS011;597;51.998;5.880;2022-11-20T01:15:52;21.15;;;14.77;;
1214;SDS011;597;51.998;5.880;2022-11-20T01:18:17;26.10;;;13.00;;
1214;SDS011;597;51.998;5.880;2022-11-20T01:20:42;20.83;;;12.17;;
1214;SDS011;597;51.998;5.880;2022-11-20T01:23:07;25.70;;;13.40;;
1214;SDS011;597;51.998;5.880;2022-11-20T01:25:33;22.03;;;13.23;;
1214;SDS011;597;51.998;5.880;2022-11-20T01:27:59;22.98;;;13.13;;
1214;SDS011;597;51.998;5.880;2022-11-20T01:30:24;22.10;;;14.53;;
1214;SDS011;597;51.998;5.880;2022-11-20T01:32:49;26.40;;;15.10;;
1214;SDS011;597;51.998;5.880;2022-11-20T01:35:14;24.57;;;13.90;;
1214;SDS011;597;51.998;5.880;2022-11-20T01:37:39;27.33;;;14.83;;
1214;SDS011;597;51.998;5.880;2022-11-20T01:40:05;24.77;;;14.67;;
1214;SDS011;597;51.998;5.880;2022-11-20T01:42:30;28.13;;;14.57;;
1214;SDS011;597;51.998;5.880;2022-11-20T01:47:58;25.65;;;14.52;;
1214;SDS011;597;51.998;5.880;2022-11-20T01:50:24;23.93;;;15.47;;
1214;SDS011;597;51.998;5.880;2022-11-20T01:52:51;25.17;;;14.77;;
1214;SDS011;597;51.998;5.880;2022-11-20T01:55:19;24.42;;;14.13;;
1214;SDS011;597;51.998;5.880;2022-11-20T01:57:45;25.00;;;14.27;;
1214;SDS011;597;51.998;5.880;2022-11-20T02:00:11;24.20;;;14.90;;
1214;SDS011;597;51.998;5.880;2022-11-20T02:02:37;27.15;;;15.55;;
1214;SDS011;597;51.998;5.880;2022-11-20T02:05:04;25.80;;;15.10;;
1214;SDS011;597;51.998;5.880;2022-11-20T02:07:32;25.98;;;14.10;;
1214;SDS011;597;51.998;5.880;2022-11-20T02:09:57;35.37;;;15.00;;
1214;SDS011;597;51.998;5.880;2022-11-20T02:12:22;30.93;;;15.60;;
1214;SDS011;597;51.998;5.880;2022-11-20T02:15:07;23.70;;;14.82;;
1214;SDS011;597;51.998;5.880;2022-11-20T02:17:32;26.80;;;15.50;;
1214;SDS011;597;51.998;5.880;2022-11-20T02:19:57;26.80;;;15.70;;
1214;SDS011;597;51.998;5.880;2022-11-20T02:22:29;28.87;;;16.03;;
1214;SDS011;597;51.998;5.880;2022-11-20T02:24:56;24.52;;;14.07;;
1214;SDS011;597;51.998;5.880;2022-11-20T02:27:22;28.88;;;16.25;;
1214;SDS011;597;51.998;5.880;2022-11-20T02:29:49;24.93;;;14.30;;
1214;SDS011;597;51.998;5.880;2022-11-20T02:32:23;22.77;;;14.70;;
1214;SDS011;597;51.998;5.880;2022-11-20T02:34:48;22.73;;;15.52;;
1214;SDS011;597;51.998;5.880;2022-11-20T02:37:13;22.13;;;14.17;;
1214;SDS011;597;51.998;5.880;2022-11-20T02:39:39;23.23;;;16.63;;
1214;SDS011;597;51.998;5.880;2022-11-20T02:42:05;24.50;;;14.70;;
1214;SDS011;597;51.998;5.880;2022-11-20T02:44:30;27.00;;;14.80;;
1214;SDS011;597;51.998;5.880;2022-11-20T02:46:56;24.67;;;16.23;;
1214;SDS011;597;51.998;5.880;2022-11-20T02:49:22;27.95;;;15.75;;
1214;SDS011;597;51.998;5.880;2022-11-20T02:51:47;24.20;;;15.37;;
1214;SDS011;597;51.998;5.880;2022-11-20T02:54:12;27.90;;;15.20;;
1214;SDS011;597;51.998;5.880;2022-11-20T02:56:38;23.13;;;14.63;;
1214;SDS011;597;51.998;5.880;2022-11-20T02:59:03;22.73;;;15.87;;
1214;SDS011;597;51.998;5.880;2022-11-20T03:01:29;25.08;;;15.15;;
1214;SDS011;597;51.998;5.880;2022-11-20T03:03:54;31.13;;;16.67;;
1214;SDS011;597;51.998;5.880;2022-11-20T03:06:21;26.65;;;14.73;;
1214;SDS011;597;51.998;5.880;2022-11-20T03:08:46;25.30;;;15.77;;
1214;SDS011;597;51.998;5.880;2022-11-20T03:11:11;25.57;;;15.63;;
1214;SDS011;597;51.998;5.880;2022-11-20T03:13:37;28.93;;;14.20;;
1214;SDS011;597;51.998;5.880;2022-11-20T03:16:06;30.33;;;15.57;;
1214;SDS011;597;51.998;5.880;2022-11-20T03:18:31;28.02;;;14.95;;
1214;SDS011;597;51.998;5.880;2022-11-20T03:20:57;28.90;;;16.23;;
1214;SDS011;597;51.998;5.880;2022-11-20T03:23:22;26.77;;;14.98;;
1214;SDS011;597;51.998;5.880;2022-11-20T03:25:47;28.30;;;14.27;;
1214;SDS011;597;51.998;5.880;2022-11-20T03:28:13;33.50;;;16.53;;
1214;SDS011;597;51.998;5.880;2022-11-20T03:30:38;30.90;;;17.20;;
1214;SDS011;597;51.998;5.880;2022-11-20T03:33:03;20.70;;;14.00;;
1214;SDS011;597;51.998;5.880;2022-11-20T03:35:28;25.03;;;16.00;;
1214;SDS011;597;51.998;5.880;2022-11-20T03:37:53;24.60;;;14.47;;
1214;SDS011;597;51.998;5.880;2022-11-20T03:40:18;31.17;;;16.57;;
1214;SDS011;597;51.998;5.880;2022-11-20T03:42:44;25.80;;;15.10;;
1214;SDS011;597;51.998;5.880;2022-11-20T03:45:13;23.42;;;16.13;;
1214;SDS011;597;51.998;5.880;2022-11-20T03:47:38;31.70;;;17.40;;
1214;SDS011;597;51.998;5.880;2022-11-20T03:50:04;27.30;;;16.90;;
1214;SDS011;597;51.998;5.880;2022-11-20T03:52:29;29.27;;;16.73;;
1214;SDS011;597;51.998;5.880;2022-11-20T03:54:54;28.80;;;16.30;;
1214;SDS011;597;51.998;5.880;2022-11-20T03:57:19;26.57;;;16.80;;
1214;SDS011;597;51.998;5.880;2022-11-20T03:59:45;26.67;;;17.50;;
1214;SDS011;597;51.998;5.880;2022-11-20T04:02:10;33.07;;;16.50;;
1214;SDS011;597;51.998;5.880;2022-11-20T04:04:35;29.10;;;16.30;;
1214;SDS011;597;51.998;5.880;2022-11-20T04:07:00;27.87;;;16.90;;
1214;SDS011;597;51.998;5.880;2022-11-20T04:09:25;28.67;;;17.33;;
1214;SDS011;597;51.998;5.880;2022-11-20T04:11:50;28.37;;;17.63;;
1214;SDS011;597;51.998;5.880;2022-11-20T04:14:16;26.83;;;15.50;;
1214;SDS011;597;51.998;5.880;2022-11-20T04:16:42;27.40;;;15.57;;
1214;SDS011;597;51.998;5.880;2022-11-20T04:19:10;27.27;;;17.27;;
1214;SDS011;597;51.998;5.880;2022-11-20T04:21:36;34.03;;;19.00;;
1214;SDS011;597;51.998;5.880;2022-11-20T04:24:01;30.47;;;18.40;;
1214;SDS011;597;51.998;5.880;2022-11-20T04:26:27;31.17;;;17.63;;
1214;SDS011;597;51.998;5.880;2022-11-20T04:28:53;28.45;;;16.92;;
1214;SDS011;597;51.998;5.880;2022-11-20T04:31:22;28.60;;;17.13;;
1214;SDS011;597;51.998;5.880;2022-11-20T04:33:47;30.20;;;17.52;;
1214;SDS011;597;51.998;5.880;2022-11-20T04:36:23;26.50;;;16.80;;
1214;SDS011;597;51.998;5.880;2022-11-20T04:38:56;31.60;;;17.25;;
1214;SDS011;597;51.998;5.880;2022-11-20T04:41:22;28.45;;;16.10;;
1214;SDS011;597;51.998;5.880;2022-11-20T04:43:47;27.52;;;17.95;;
1214;SDS011;597;51.998;5.880;2022-11-20T04:46:13;29.83;;;17.48;;
1214;SDS011;597;51.998;5.880;2022-11-20T04:48:38;26.43;;;16.17;;
1214;SDS011;597;51.998;5.880;2022-11-20T04:51:04;28.70;;;16.47;;
1214;SDS011;597;51.998;5.880;2022-11-20T04:53:29;30.63;;;16.93;;
1214;SDS011;597;51.998;5.880;2022-11-20T04:55:59;29.43;;;18.13;;
1214;SDS011;597;51.998;5.880;2022-11-20T04:58:24;25.25;;;16.65;;
1214;SDS011;597;51.998;5.880;2022-11-20T05:00:49;29.33;;;16.50;;
1214;SDS011;597;51.998;5.880;2022-11-20T05:03:16;32.30;;;17.95;;
1214;SDS011;597;51.998;5.880;2022-11-20T05:05:42;33.63;;;16.73;;
1214;SDS011;597;51.998;5.880;2022-11-20T05:08:07;25.27;;;15.93;;
1214;SDS011;597;51.998;5.880;2022-11-20T05:10:32;33.53;;;19.30;;
1214;SDS011;597;51.998;5.880;2022-11-20T05:12:57;32.57;;;16.63;;
1214;SDS011;597;51.998;5.880;2022-11-20T05:15:22;32.50;;;18.23;;
1214;SDS011;597;51.998;5.880;2022-11-20T05:17:48;29.80;;;16.90;;
1214;SDS011;597;51.998;5.880;2022-11-20T05:20:14;33.77;;;18.33;;
1214;SDS011;597;51.998;5.880;2022-11-20T05:22:39;26.83;;;15.90;;
1214;SDS011;597;51.998;5.880;2022-11-20T05:25:04;29.70;;;18.17;;
1214;SDS011;597;51.998;5.880;2022-11-20T05:27:29;28.67;;;17.77;;
1214;SDS011;597;51.998;5.880;2022-11-20T05:29:55;29.60;;;17.73;;
1214;SDS011;597;51.998;5.880;2022-11-20T05:32:20;33.23;;;17.77;;
1214;SDS011;597;51.998;5.880;2022-11-20T05:34:45;38.43;;;18.67;;
1214;SDS011;597;51.998;5.880;2022-11-20T05:37:10;33.10;;;19.70;;
1214;SDS011;597;51.998;5.880;2022-11-20T05:39:35;29.57;;;17.67;;
1214;SDS011;597;51.998;5.880;2022-11-20T05:42:00;28.63;;;17.97;;
1214;SDS011;597;51.998;5.880;2022-11-20T05:44:44;27.63;;;16.38;;
1214;SDS011;597;51.998;5.880;2022-11-20T05:47:10;36.00;;;17.70;;
1214;SDS011;597;51.998;5.880;2022-11-20T05:49:35;27.03;;;16.60;;
1214;SDS011;597;51.998;5.880;2022-11-20T05:52:00;29.90;;;17.17;;
1214;SDS011;597;51.998;5.880;2022-11-20T05:54:25;26.97;;;16.30;;
1214;SDS011;597;51.998;5.880;2022-11-20T05:56:50;32.60;;;18.70;;
1214;SDS011;597;51.998;5.880;2022-11-20T05:59:16;31.57;;;17.60;;
1214;SDS011;597;51.998;5.880;2022-11-20T06:01:41;35.63;;;18.57;;
1214;SDS011;597;51.998;5.880;2022-11-20T06:04:06;30.43;;;17.27;;
1214;SDS011;597;51.998;5.880;2022-11-20T06:06:31;25.90;;;16.27;;
1214;SDS011;597;51.998;5.880;2022-11-20T06:08:57;33.37;;;17.63;;
1214;SDS011;597;51.998;5.880;2022-11-20T06:11:24;31.42;;;17.60;;
1214;SDS011;597;51.998;5.880;2022-11-20T06:13:49;28.80;;;18.90;;
1214;SDS011;597;51.998;5.880;2022-11-20T06:16:15;33.53;;;19.10;;
1214;SDS011;597;51.998;5.880;2022-11-20T06:18:40;36.28;;;21.67;;
1214;SDS011;597;51.998;5.880;2022-11-20T06:21:07;35.90;;;20.60;;
1214;SDS011;597;51.998;5.880;2022-11-20T06:23:33;33.05;;;19.95;;
1214;SDS011;597;51.998;5.880;2022-11-20T06:26:03;37.25;;;21.35;;
1214;SDS011;597;51.998;5.880;2022-11-20T06:28:28;36.17;;;20.58;;
1214;SDS011;597;51.998;5.880;2022-11-20T06:30:53;35.10;;;20.90;;
1214;SDS011;597;51.998;5.880;2022-11-20T06:33:18;38.03;;;20.80;;
1214;SDS011;597;51.998;5.880;2022-11-20T06:35:44;37.90;;;21.20;;
1214;SDS011;597;51.998;5.880;2022-11-20T06:38:09;43.20;;;23.13;;
1214;SDS011;597;51.998;5.880;2022-11-20T06:40:34;40.27;;;22.00;;
1214;SDS011;597;51.998;5.880;2022-11-20T06:42:59;40.53;;;21.20;;
1214;SDS011;597;51.998;5.880;2022-11-20T06:45:24;36.93;;;22.00;;
1214;SDS011;597;51.998;5.880;2022-11-20T06:47:50;45.10;;;23.40;;
1214;SDS011;597;51.998;5.880;2022-11-20T06:50:15;42.83;;;23.50;;
1214;SDS011;597;51.998;5.880;2022-11-20T06:52:40;37.80;;;21.90;;
1214;SDS011;597;51.998;5.880;2022-11-20T06:55:05;44.43;;;23.47;;
1214;SDS011;597;51.998;5.880;2022-11-20T06:57:31;45.60;;;24.20;;
1214;SDS011;597;51.998;5.880;2022-11-20T06:59:56;39.30;;;23.27;;
1214;SDS011;597;51.998;5.880;2022-11-20T07:02:21;39.37;;;23.57;;
1214;SDS011;597;51.998;5.880;2022-11-20T07:04:46;39.30;;;23.70;;
1214;SDS011;597;51.998;5.880;2022-11-20T07:07:12;39.03;;;21.23;;
1214;SDS011;597;51.998;5.880;2022-11-20T07:09:37;40.63;;;23.10;;
1214;SDS011;597;51.998;5.880;2022-11-20T07:12:02;43.87;;;24.37;;
1214;SDS011;597;51.998;5.880;2022-11-20T07:14:27;41.57;;;24.40;;
1214;SDS011;597;51.998;5.880;2022-11-20T07:16:52;38.33;;;23.47;;
1214;SDS011;597;51.998;5.880;2022-11-20T07:19:18;45.33;;;22.57;;
1214;SDS011;597;51.998;5.880;2022-11-20T07:21:43;42.40;;;23.53;;
1214;SDS011;597;51.998;5.880;2022-11-20T07:24:08;36.50;;;22.10;;
1214;SDS011;597;51.998;5.880;2022-11-20T07:26:33;36.20;;;22.53;;
1214;SDS011;597;51.998;5.880;2022-11-20T07:28:58;36.50;;;23.60;;
1214;SDS011;597;51.998;5.880;2022-11-20T07:31:24;34.30;;;21.63;;
1214;SDS011;597;51.998;5.880;2022-11-20T07:33:49;41.53;;;22.63;;
1214;SDS011;597;51.998;5.880;2022-11-20T07:36:14;44.00;;;24.57;;
1214;SDS011;597;51.998;5.880;2022-11-20T07:38:39;48.77;;;24.87;;
1214;SDS011;597;51.998;5.880;2022-11-20T07:41:05;42.47;;;28.00;;
1214;SDS011;597;51.998;5.880;2022-11-20T07:43:30;43.97;;;24.47;;
1214;SDS011;597;51.998;5.880;2022-11-20T07:45:56;39.50;;;25.00;;
1214;SDS011;597;51.998;5.880;2022-11-20T07:48:21;39.00;;;22.37;;
1214;SDS011;597;51.998;5.880;2022-11-20T07:50:46;42.17;;;23.30;;
1214;SDS011;597;51.998;5.880;2022-11-20T07:53:11;41.77;;;23.20;;
1214;SDS011;597;51.998;5.880;2022-11-20T07:55:38;36.63;;;23.58;;
1214;SDS011;597;51.998;5.880;2022-11-20T07:58:03;59.80;;;35.27;;
1214;SDS011;597;51.998;5.880;2022-11-20T08:00:29;61.40;;;35.20;;
1214;SDS011;597;51.998;5.880;2022-11-20T08:02:54;50.13;;;32.73;;
1214;SDS011;597;51.998;5.880;2022-11-20T08:05:19;43.90;;;25.87;;
1214;SDS011;597;51.998;5.880;2022-11-20T08:07:44;49.03;;;28.50;;
1214;SDS011;597;51.998;5.880;2022-11-20T08:10:11;43.37;;;27.50;;
1214;SDS011;597;51.998;5.880;2022-11-20T08:12:43;50.42;;;27.45;;
1214;SDS011;597;51.998;5.880;2022-11-20T08:15:27;48.65;;;27.25;;
1214;SDS011;597;51.998;5.880;2022-11-20T08:17:58;42.30;;;25.50;;
1214;SDS011;597;51.998;5.880;2022-11-20T08:20:25;52.65;;;27.23;;
1214;SDS011;597;51.998;5.880;2022-11-20T08:22:51;49.80;;;29.10;;
1214;SDS011;597;51.998;5.880;2022-11-20T08:25:16;40.13;;;27.47;;
1214;SDS011;597;51.998;5.880;2022-11-20T08:27:41;42.73;;;26.83;;
1214;SDS011;597;51.998;5.880;2022-11-20T08:30:06;48.77;;;28.70;;
1214;SDS011;597;51.998;5.880;2022-11-20T08:32:32;44.27;;;26.37;;
1214;SDS011;597;51.998;5.880;2022-11-20T08:34:59;38.75;;;27.05;;
1214;SDS011;597;51.998;5.880;2022-11-20T08:37:25;50.40;;;28.47;;
1214;SDS011;597;51.998;5.880;2022-11-20T08:39:50;48.07;;;26.93;;
1214;SDS011;597;51.998;5.880;2022-11-20T08:42:15;37.37;;;26.30;;
1214;SDS011;597;51.998;5.880;2022-11-20T08:44:40;41.73;;;25.23;;
1214;SDS011;597;51.998;5.880;2022-11-20T08:47:05;45.37;;;29.13;;
1214;SDS011;597;51.998;5.880;2022-11-20T08:49:30;42.37;;;27.47;;
1214;SDS011;597;51.998;5.880;2022-11-20T08:51:56;42.53;;;27.60;;
1214;SDS011;597;51.998;5.880;2022-11-20T08:54:21;48.20;;;29.60;;
1214;SDS011;597;51.998;5.880;2022-11-20T08:56:47;45.20;;;29.23;;
1214;SDS011;597;51.998;5.880;2022-11-20T08:59:12;38.37;;;27.20;;
1214;SDS011;597;51.998;5.880;2022-11-20T09:01:38;44.20;;;29.13;;
1214;SDS011;597;51.998;5.880;2022-11-20T09:04:04;46.10;;;28.27;;
1214;SDS011;597;51.998;5.880;2022-11-20T09:06:29;38.57;;;23.60;;
1214;SDS011;597;51.998;5.880;2022-11-20T09:08:54;43.53;;;27.40;;
1214;SDS011;597;51.998;5.880;2022-11-20T09:11:20;30.90;;;22.87;;
1214;SDS011;597;51.998;5.880;2022-11-20T09:13:45;34.37;;;23.07;;
1214;SDS011;597;51.998;5.880;2022-11-20T09:16:11;41.30;;;27.03;;
1214;SDS011;597;51.998;5.880;2022-11-20T09:18:36;37.17;;;24.43;;
1214;SDS011;597;51.998;5.880;2022-11-20T09:21:03;41.80;;;25.57;;
1214;SDS011;597;51.998;5.880;2022-11-20T09:23:30;42.55;;;24.33;;
1214;SDS011;597;51.998;5.880;2022-11-20T09:25:56;40.58;;;25.05;;
1214;SDS011;597;51.998;5.880;2022-11-20T09:28:24;44.22;;;25.80;;
1214;SDS011;597;51.998;5.880;2022-11-20T09:30:50;46.03;;;27.30;;
1214;SDS011;597;51.998;5.880;2022-11-20T09:33:15;44.87;;;26.73;;
1214;SDS011;597;51.998;5.880;2022-11-20T09:35:40;42.90;;;25.40;;
1214;SDS011;597;51.998;5.880;2022-11-20T09:38:06;45.97;;;27.27;;
1214;SDS011;597;51.998;5.880;2022-11-20T09:40:31;46.37;;;25.07;;
1214;SDS011;597;51.998;5.880;2022-11-20T09:43:02;43.07;;;27.57;;
1214;SDS011;597;51.998;5.880;2022-11-20T09:50:56;46.17;;;26.48;;
1214;SDS011;597;51.998;5.880;2022-11-20T09:55:47;47.60;;;27.50;;
1214;SDS011;597;51.998;5.880;2022-11-20T09:58:47;54.87;;;27.37;;
1214;SDS011;597;51.998;5.880;2022-11-20T10:01:15;46.38;;;27.25;;
1214;SDS011;597;51.998;5.880;2022-11-20T10:03:45;59.42;;;34.90;;
1214;SDS011;597;51.998;5.880;2022-11-20T10:06:15;43.75;;;27.92;;
1214;SDS011;597;51.998;5.880;2022-11-20T10:08:43;48.22;;;26.83;;
1214;SDS011;597;51.998;5.880;2022-11-20T10:11:14;45.08;;;27.02;;
1214;SDS011;597;51.998;5.880;2022-11-20T10:16:21;44.88;;;29.02;;
1214;SDS011;597;51.998;5.880;2022-11-20T10:24:01;39.03;;;26.80;;
1214;SDS011;597;51.998;5.880;2022-11-20T10:29:07;46.33;;;26.92;;
1214;SDS011;597;51.998;5.880;2022-11-20T10:31:56;41.40;;;26.42;;
1214;SDS011;597;51.998;5.880;2022-11-20T10:34:21;37.72;;;24.95;;
1214;SDS011;597;51.998;5.880;2022-11-20T10:39:32;45.03;;;32.25;;
1214;SDS011;597;51.998;5.880;2022-11-20T10:41:58;37.47;;;24.70;;
1214;SDS011;597;51.998;5.880;2022-11-20T10:44:28;40.27;;;25.83;;
1214;SDS011;597;51.998;5.880;2022-11-20T10:47:16;44.35;;;27.08;;
1214;SDS011;597;51.998;5.880;2022-11-20T10:49:42;39.45;;;26.00;;
1214;SDS011;597;51.998;5.880;2022-11-20T10:57:26;40.30;;;26.40;;
1214;SDS011;597;51.998;5.880;2022-11-20T11:05:12;39.92;;;27.55;;
1214;SDS011;597;51.998;5.880;2022-11-20T11:07:39;51.30;;;32.08;;
1214;SDS011;597;51.998;5.880;2022-11-20T11:10:44;44.03;;;26.57;;
1214;SDS011;597;51.998;5.880;2022-11-20T11:12:56;39.00;;;27.02;;
1214;SDS011;597;51.998;5.880;2022-11-20T11:15:28;35.70;;;25.40;;
1214;SDS011;597;51.998;5.880;2022-11-20T11:17:53;42.83;;;28.75;;
1214;SDS011;597;51.998;5.880;2022-11-20T11:20:20;38.43;;;27.30;;
1214;SDS011;597;51.998;5.880;2022-11-20T11:22:53;42.70;;;25.75;;
1214;SDS011;597;51.998;5.880;2022-11-20T11:25:27;42.25;;;27.77;;
1214;SDS011;597;51.998;5.880;2022-11-20T11:27:53;40.42;;;26.38;;
1214;SDS011;597;51.998;5.880;2022-11-20T11:30:21;38.53;;;25.05;;
1214;SDS011;597;51.998;5.880;2022-11-20T11:32:46;37.20;;;24.80;;
1214;SDS011;597;51.998;5.880;2022-11-20T11:35:22;42.93;;;26.90;;
1214;SDS011;597;51.998;5.880;2022-11-20T11:37:47;36.45;;;25.27;;
1214;SDS011;597;51.998;5.880;2022-11-20T11:40:13;42.00;;;26.30;;
1214;SDS011;597;51.998;5.880;2022-11-20T11:42:42;35.97;;;24.50;;
1214;SDS011;597;51.998;5.880;2022-11-20T11:45:11;42.42;;;26.67;;
1214;SDS011;597;51.998;5.880;2022-11-20T11:55:14;41.60;;;23.98;;
1214;SDS011;597;51.998;5.880;2022-11-20T11:57:49;35.15;;;24.92;;
1214;SDS011;597;51.998;5.880;2022-11-20T12:00:16;34.97;;;23.42;;
1214;SDS011;597;51.998;5.880;2022-11-20T12:07:54;41.17;;;26.52;;
1214;SDS011;597;51.998;5.880;2022-11-20T12:13:48;38.08;;;25.40;;
1214;SDS011;597;51.998;5.880;2022-11-20T12:15:54;40.78;;;25.75;;
1214;SDS011;597;51.998;5.880;2022-11-20T12:18:20;34.90;;;24.40;;
1214;SDS011;597;51.998;5.880;2022-11-20T12:20:48;37.85;;;26.48;;
1214;SDS011;597;51.998;5.880;2022-11-20T12:23:20;37.05;;;26.15;;
1214;SDS011;597;51.998;5.880;2022-11-20T12:25:47;44.42;;;29.63;;
1214;SDS011;597;51.998;5.880;2022-11-20T12:28:20;45.75;;;30.08;;
1214;SDS011;597;51.998;5.880;2022-11-20T12:33:45;47.65;;;31.45;;
1214;SDS011;597;51.998;5.880;2022-11-20T12:44:24;43.17;;;29.70;;
1214;SDS011;597;51.998;5.880;2022-11-20T12:47:58;42.22;;;28.52;;
1214;SDS011;597;51.998;5.880;2022-11-20T12:50:09;42.80;;;28.25;;
1214;SDS011;597;51.998;5.880;2022-11-20T12:52:46;43.08;;;29.50;;
1214;SDS011;597;51.998;5.880;2022-11-20T12:58:09;40.90;;;28.73;;
1214;SDS011;597;51.998;5.880;2022-11-20T13:00:35;46.10;;;30.45;;
1214;SDS011;597;51.998;5.880;2022-11-20T13:08:21;42.00;;;29.77;;
1214;SDS011;597;51.998;5.880;2022-11-20T13:10:53;45.90;;;28.70;;
1214;SDS011;597;51.998;5.880;2022-11-20T13:15:53;49.22;;;32.58;;
1214;SDS011;597;51.998;5.880;2022-11-20T13:18:20;50.08;;;32.17;;
1214;SDS011;597;51.998;5.880;2022-11-20T13:20:46;44.10;;;31.43;;
1214;SDS011;597;51.998;5.880;2022-11-20T13:23:22;46.57;;;29.77;;
1214;SDS011;597;51.998;5.880;2022-11-20T13:25:47;49.55;;;33.05;;
1214;SDS011;597;51.998;5.880;2022-11-20T13:30:48;46.23;;;29.93;;
1214;SDS011;597;51.998;5.880;2022-11-20T13:35:56;48.25;;;32.03;;
1214;SDS011;597;51.998;5.880;2022-11-20T13:38:21;48.63;;;30.08;;
1214;SDS011;597;51.998;5.880;2022-11-20T13:40:51;52.10;;;32.60;;
1214;SDS011;597;51.998;5.880;2022-11-20T13:45:54;55.95;;;30.20;;
1214;SDS011;597;51.998;5.880;2022-11-20T13:48:20;49.55;;;31.85;;
1214;SDS011;597;51.998;5.880;2022-11-20T13:50:49;53.10;;;31.75;;
1214;SDS011;597;51.998;5.880;2022-11-20T13:53:33;50.92;;;31.55;;
1214;SDS011;597;51.998;5.880;2022-11-20T13:56:05;51.35;;;33.33;;
1214;SDS011;597;51.998;5.880;2022-11-20T13:58:43;63.90;;;33.47;;
1214;SDS011;597;51.998;5.880;2022-11-20T14:01:19;61.83;;;36.35;;
1214;SDS011;597;51.998;5.880;2022-11-20T14:03:46;61.90;;;39.25;;
1214;SDS011;597;51.998;5.880;2022-11-20T14:06:31;54.90;;;36.80;;
1214;SDS011;597;51.998;5.880;2022-11-20T14:08:57;58.08;;;34.30;;
1214;SDS011;597;51.998;5.880;2022-11-20T14:11:24;49.15;;;33.22;;
1214;SDS011;597;51.998;5.880;2022-11-20T14:14:00;62.00;;;35.78;;
1214;SDS011;597;51.998;5.880;2022-11-20T14:16:26;55.00;;;34.22;;
1214;SDS011;597;51.998;5.880;2022-11-20T14:18:52;67.72;;;34.83;;
1214;SDS011;597;51.998;5.880;2022-11-20T14:21:22;54.03;;;36.20;;
1214;SDS011;597;51.998;5.880;2022-11-20T14:23:47;56.55;;;35.22;;
1214;SDS011;597;51.998;5.880;2022-11-20T14:26:14;65.73;;;36.43;;
1214;SDS011;597;51.998;5.880;2022-11-20T14:28:40;61.83;;;36.60;;
1214;SDS011;597;51.998;5.880;2022-11-20T14:31:08;59.63;;;36.13;;
1214;SDS011;597;51.998;5.880;2022-11-20T14:33:42;61.00;;;35.25;;
1214;SDS011;597;51.998;5.880;2022-11-20T14:36:15;63.50;;;36.40;;
1214;SDS011;597;51.998;5.880;2022-11-20T14:38:41;69.45;;;39.67;;
1214;SDS011;597;51.998;5.880;2022-11-20T14:41:08;60.90;;;39.37;;
1214;SDS011;597;51.998;5.880;2022-11-20T14:43:33;64.65;;;40.67;;
1214;SDS011;597;51.998;5.880;2022-11-20T14:46:02;64.30;;;38.95;;
1214;SDS011;597;51.998;5.880;2022-11-20T14:48:31;69.30;;;41.03;;
1214;SDS011;597;51.998;5.880;2022-11-20T14:50:57;67.47;;;40.35;;
1214;SDS011;597;51.998;5.880;2022-11-20T14:53:23;71.50;;;42.30;;
1214;SDS011;597;51.998;5.880;2022-11-20T14:55:54;67.65;;;40.13;;
1214;SDS011;597;51.998;5.880;2022-11-20T14:58:20;60.70;;;36.42;;
1214;SDS011;597;51.998;5.880;2022-11-20T15:00:53;69.03;;;37.85;;
1214;SDS011;597;51.998;5.880;2022-11-20T15:03:19;68.65;;;36.85;;
1214;SDS011;597;51.998;5.880;2022-11-20T15:05:47;63.57;;;38.97;;
1214;SDS011;597;51.998;5.880;2022-11-20T15:08:13;62.78;;;37.88;;
1214;SDS011;597;51.998;5.880;2022-11-20T15:10:44;74.63;;;42.40;;
1214;SDS011;597;51.998;5.880;2022-11-20T15:13:15;69.95;;;39.53;;
1214;SDS011;597;51.998;5.880;2022-11-20T15:15:45;72.38;;;41.30;;
1214;SDS011;597;51.998;5.880;2022-11-20T15:18:17;65.75;;;38.58;;
1214;SDS011;597;51.998;5.880;2022-11-20T15:20:43;70.35;;;40.47;;
1214;SDS011;597;51.998;5.880;2022-11-20T15:23:11;82.60;;;44.37;;
1214;SDS011;597;51.998;5.880;2022-11-20T15:25:37;75.80;;;39.00;;
1214;SDS011;597;51.998;5.880;2022-11-20T15:28:04;69.70;;;40.53;;
1214;SDS011;597;51.998;5.880;2022-11-20T15:30:29;69.50;;;41.42;;
1214;SDS011;597;51.998;5.880;2022-11-20T15:32:55;75.50;;;43.83;;
1214;SDS011;597;51.998;5.880;2022-11-20T15:35:20;65.23;;;40.53;;
1214;SDS011;597;51.998;5.880;2022-11-20T15:37:45;76.00;;;42.47;;
1214;SDS011;597;51.998;5.880;2022-11-20T15:40:10;77.30;;;43.23;;
1214;SDS011;597;51.998;5.880;2022-11-20T15:42:36;74.10;;;43.30;;
1214;SDS011;597;51.998;5.880;2022-11-20T15:45:01;72.00;;;43.07;;
1214;SDS011;597;51.998;5.880;2022-11-20T15:47:28;80.83;;;44.37;;
1214;SDS011;597;51.998;5.880;2022-11-20T15:49:54;76.32;;;46.30;;
1214;SDS011;597;51.998;5.880;2022-11-20T15:52:20;84.00;;;45.97;;
1214;SDS011;597;51.998;5.880;2022-11-20T15:54:45;85.10;;;44.87;;
1214;SDS011;597;51.998;5.880;2022-11-20T15:57:10;99.80;;;46.30;;
1214;SDS011;597;51.998;5.880;2022-11-20T15:59:35;81.90;;;46.07;;
1214;SDS011;597;51.998;5.880;2022-11-20T16:02:08;75.80;;;45.58;;
1214;SDS011;597;51.998;5.880;2022-11-20T16:04:33;75.82;;;45.35;;
1214;SDS011;597;51.998;5.880;2022-11-20T16:06:59;85.40;;;47.40;;
1214;SDS011;597;51.998;5.880;2022-11-20T16:09:24;85.13;;;44.07;;
1214;SDS011;597;51.998;5.880;2022-11-20T16:11:49;89.23;;;47.43;;
1214;SDS011;597;51.998;5.880;2022-11-20T16:14:14;93.70;;;47.23;;
1214;SDS011;597;51.998;5.880;2022-11-20T16:16:58;84.07;;;47.08;;
1214;SDS011;597;51.998;5.880;2022-11-20T16:19:23;92.30;;;47.87;;